createdAt,value
2023-01-29T00:01:04.236Z,-2.35
2023-01-29T00:03:07.188Z,-2.33
2023-01-29T00:05:26.494Z,-2.34
2023-01-29T00:07:30.761Z,-2.32
2023-01-29T00:09:33.759Z,-2.20
2023-01-29T00:11:36.777Z,-2.15
2023-01-29T00:13:41.130Z,-2.36
2023-01-29T00:15:53.390Z,-2.27
2023-01-29T00:17:56.332Z,-2.31
2023-01-29T00:19:59.378Z,-2.36
2023-01-29T00:22:02.408Z,-2.28
2023-01-29T00:24:05.958Z,-2.32
2023-01-29T00:26:09.213Z,-2.38
2023-01-29T00:28:13.796Z,-2.30
2023-01-29T00:30:20.195Z,-2.28
2023-01-29T00:32:23.416Z,-2.25
2023-01-29T00:34:26.323Z,-2.35
2023-01-29T00:36:29.399Z,-2.37
2023-01-29T00:38:32.437Z,-2.36
2023-01-29T00:40:58.457Z,-2.37
2023-01-29T00:43:20.157Z,-2.32
2023-01-29T00:45:24.637Z,-2.37
2023-01-29T00:47:34.020Z,-2.30
2023-01-29T00:49:37.252Z,-2.40
2023-01-29T00:51:40.679Z,-2.41
2023-01-29T00:53:43.637Z,-2.30
2023-01-29T00:55:46.737Z,-2.34
2023-01-29T00:57:51.218Z,-2.35
2023-01-29T00:59:54.279Z,-2.42
2023-01-29T01:02:17.039Z,-2.49
2023-01-29T01:04:23.684Z,-2.42
2023-01-29T01:06:27.478Z,-2.34
2023-01-29T01:08:49.079Z,-2.37
2023-01-29T01:10:59.963Z,-2.27
2023-01-29T01:13:14.910Z,-2.34
2023-01-29T01:15:18.569Z,-2.35
2023-01-29T01:17:23.042Z,-2.41
2023-01-29T01:19:26.281Z,-2.44
2023-01-29T01:21:29.317Z,-2.39
2023-01-29T01:23:32.678Z,-2.35
2023-01-29T01:25:35.639Z,-2.34
2023-01-29T01:27:41.560Z,-2.40
2023-01-29T01:29:44.440Z,-2.46
2023-01-29T01:31:47.412Z,-2.39
2023-01-29T01:33:54.630Z,-2.42
2023-01-29T01:36:02.057Z,-2.38
2023-01-29T01:38:05.178Z,-2.35
2023-01-29T01:40:18.946Z,-2.37
2023-01-29T01:42:22.042Z,-2.33
2023-01-29T01:44:54.040Z,-2.38
2023-01-29T01:46:57.055Z,-2.34
2023-01-29T01:49:06.199Z,-2.34
2023-01-29T01:51:09.598Z,-2.37
2023-01-29T01:53:14.878Z,-2.36
2023-01-29T01:55:20.040Z,-2.37
2023-01-29T01:57:26.038Z,-2.40
2023-01-29T01:59:29.148Z,-2.46
2023-01-29T02:01:32.239Z,-2.40
2023-01-29T02:03:58.240Z,-2.36
2023-01-29T02:06:21.417Z,-2.37
2023-01-29T02:08:51.082Z,-2.36
2023-01-29T02:10:54.478Z,-2.38
2023-01-29T02:12:57.550Z,-2.34
2023-01-29T02:15:00.896Z,-2.31
2023-01-29T02:17:03.954Z,-2.33
2023-01-29T02:19:15.243Z,-2.29
2023-01-29T02:21:42.077Z,-2.33
2023-01-29T02:23:59.816Z,-2.28
2023-01-29T02:26:21.039Z,-2.27
2023-01-29T02:28:36.957Z,-2.32
2023-01-29T02:30:48.796Z,-2.22
2023-01-29T02:32:59.797Z,-2.29
2023-01-29T02:35:47.034Z,-2.29
2023-01-29T02:37:55.918Z,-2.27
2023-01-29T02:40:10.357Z,-2.28
2023-01-29T02:42:17.478Z,-2.36
2023-01-29T02:44:30.677Z,-2.29
2023-01-29T02:46:40.407Z,-2.26
2023-01-29T02:48:49.598Z,-2.21
2023-01-29T02:50:59.484Z,-2.30
2023-01-29T02:53:08.600Z,-2.21
2023-01-29T02:55:16.417Z,-2.18
2023-01-29T02:57:23.356Z,-2.24
2023-01-29T02:59:35.916Z,-2.21
2023-01-29T03:01:46.488Z,-2.24
2023-01-29T03:03:54.632Z,-2.18
2023-01-29T03:06:06.569Z,-2.25
2023-01-29T03:08:12.527Z,-2.18
2023-01-29T03:10:20.518Z,-2.25
2023-01-29T03:12:34.478Z,-2.26
2023-01-29T03:15:01.652Z,-2.27
2023-01-29T03:17:09.079Z,-2.21
2023-01-29T03:19:17.638Z,-2.18
2023-01-29T03:21:44.316Z,-2.18
2023-01-29T03:24:06.668Z,-2.22
2023-01-29T03:26:28.530Z,-2.21
2023-01-29T03:28:51.067Z,-2.21
2023-01-29T03:31:16.437Z,-2.26
2023-01-29T03:33:26.897Z,-2.31
2023-01-29T03:35:35.854Z,-2.26
2023-01-29T03:37:44.530Z,-2.23
2023-01-29T03:39:48.438Z,-2.18
2023-01-29T03:41:56.957Z,-2.15
2023-01-29T03:44:10.881Z,-2.23
2023-01-29T03:46:24.877Z,-2.24
2023-01-29T03:48:33.557Z,-2.22
2023-01-29T03:50:42.319Z,-2.24
2023-01-29T03:52:52.002Z,-2.22
2023-01-29T03:55:01.516Z,-2.15
2023-01-29T03:57:17.716Z,-2.15
2023-01-29T03:59:33.476Z,-2.17
2023-01-29T04:02:13.302Z,-2.15
2023-01-29T04:04:22.709Z,-2.17
2023-01-29T04:06:30.437Z,-2.17
2023-01-29T04:08:48.917Z,-2.16
2023-01-29T04:10:55.287Z,-2.16
2023-01-29T04:13:02.681Z,-2.12
2023-01-29T04:15:11.460Z,-2.17
2023-01-29T04:17:19.603Z,-2.17
2023-01-29T04:19:32.357Z,-2.17
2023-01-29T04:21:37.970Z,-2.18
2023-01-29T04:23:41.891Z,-2.17
2023-01-29T04:25:53.076Z,-2.15
2023-01-29T04:28:04.513Z,-2.19
2023-01-29T04:30:21.477Z,-2.15
2023-01-29T04:32:33.036Z,-2.20
2023-01-29T04:34:52.056Z,-2.20
2023-01-29T04:37:04.936Z,-2.18
2023-01-29T04:39:18.440Z,-2.21
2023-01-29T04:41:28.077Z,-2.18
2023-01-29T04:43:40.284Z,-2.24
2023-01-29T04:45:55.276Z,-2.25
2023-01-29T04:48:10.236Z,-2.25
2023-01-29T04:50:18.699Z,-2.31
2023-01-29T04:52:29.117Z,-2.27
2023-01-29T04:54:43.481Z,-2.35
2023-01-29T04:56:53.839Z,-2.30
2023-01-29T04:59:01.268Z,-2.38
2023-01-29T05:01:09.556Z,-2.36
2023-01-29T05:03:15.876Z,-2.34
2023-01-29T05:05:21.237Z,-2.37
2023-01-29T05:07:27.044Z,-2.40
2023-01-29T05:09:30.519Z,-2.39
2023-01-29T05:11:35.296Z,-2.44
2023-01-29T05:13:42.250Z,-2.44
2023-01-29T05:15:49.153Z,-2.42
2023-01-29T05:17:54.157Z,-2.50
2023-01-29T05:19:58.678Z,-2.52
2023-01-29T05:22:05.658Z,-2.51
2023-01-29T05:24:13.319Z,-2.56
2023-01-29T05:26:35.009Z,-2.55
2023-01-29T05:28:37.911Z,-2.52
2023-01-29T05:30:40.972Z,-2.61
2023-01-29T05:32:43.812Z,-2.59
2023-01-29T05:34:47.117Z,-2.65
2023-01-29T05:36:51.614Z,-2.68
2023-01-29T05:38:54.497Z,-2.63
2023-01-29T05:40:59.650Z,-2.63
2023-01-29T05:43:02.841Z,-2.66
2023-01-29T05:45:06.709Z,-2.63
2023-01-29T05:47:09.757Z,-2.68
2023-01-29T05:49:13.077Z,-2.72
2023-01-29T05:51:16.314Z,-2.78
2023-01-29T05:53:20.698Z,-2.63
2023-01-29T05:55:23.637Z,-2.72
2023-01-29T05:57:26.806Z,-2.70
2023-01-29T05:59:31.527Z,-2.70
2023-01-29T06:01:34.592Z,-2.71
2023-01-29T06:03:37.682Z,-2.70
2023-01-29T06:05:40.914Z,-2.72
2023-01-29T06:07:45.667Z,-2.73
2023-01-29T06:09:50.122Z,-2.80
2023-01-29T06:11:53.318Z,-2.77
2023-01-29T06:13:56.310Z,-2.72
2023-01-29T06:15:59.386Z,-2.79
2023-01-29T06:18:02.557Z,-2.77
2023-01-29T06:20:06.926Z,-2.84
2023-01-29T06:22:09.918Z,-2.77
2023-01-29T06:24:12.971Z,-2.85
2023-01-29T06:26:17.449Z,-2.78
2023-01-29T06:28:20.517Z,-2.84
2023-01-29T06:30:23.957Z,-2.89
2023-01-29T06:32:27.864Z,-2.79
2023-01-29T06:34:30.949Z,-2.79
2023-01-29T06:36:34.121Z,-2.79
2023-01-29T06:38:37.017Z,-2.79
2023-01-29T06:40:40.139Z,-2.75
2023-01-29T06:42:46.134Z,-2.75
2023-01-29T06:44:49.998Z,-2.76
2023-01-29T06:46:52.928Z,-2.77
2023-01-29T06:48:59.578Z,-2.74
2023-01-29T06:51:03.616Z,-2.70
2023-01-29T06:53:06.637Z,-2.75
2023-01-29T06:55:10.337Z,-2.72
2023-01-29T06:57:13.441Z,-2.67
2023-01-29T06:59:18.077Z,-2.65
2023-01-29T07:01:36.888Z,-2.68
2023-01-29T07:03:41.878Z,-2.58
2023-01-29T07:05:50.657Z,-2.63
2023-01-29T07:07:53.558Z,-2.63
2023-01-29T07:09:56.479Z,-2.62
2023-01-29T07:11:59.433Z,-2.65
2023-01-29T07:14:02.591Z,-2.61
2023-01-29T07:16:07.623Z,-2.55
2023-01-29T07:18:13.876Z,-2.56
2023-01-29T07:20:17.580Z,-2.51
2023-01-29T07:22:20.709Z,-2.53
2023-01-29T07:24:23.742Z,-2.46
2023-01-29T07:26:26.940Z,-2.49
2023-01-29T07:28:31.197Z,-2.52
2023-01-29T07:30:34.648Z,-2.46
2023-01-29T07:32:38.937Z,-2.46
2023-01-29T07:34:41.820Z,-2.41
2023-01-29T07:36:45.048Z,-2.43
2023-01-29T07:38:50.902Z,-2.43
2023-01-29T07:40:53.921Z,-2.37
2023-01-29T07:42:59.269Z,-2.39
2023-01-29T07:45:02.926Z,-2.39
2023-01-29T07:47:06.157Z,-2.41
2023-01-29T07:49:10.559Z,-2.32
2023-01-29T07:51:13.516Z,-2.33
2023-01-29T07:53:17.437Z,-2.28
2023-01-29T07:55:20.558Z,-2.25
2023-01-29T07:57:23.669Z,-2.25
2023-01-29T07:59:26.957Z,-2.23
2023-01-29T08:01:29.861Z,-2.17
2023-01-29T08:03:32.969Z,-2.13
2023-01-29T08:05:37.407Z,-2.07
2023-01-29T08:07:40.479Z,-2.06
2023-01-29T08:09:43.615Z,-2.06
2023-01-29T08:11:46.818Z,-2.04
2023-01-29T08:13:49.732Z,-1.98
2023-01-29T08:15:52.655Z,-1.98
2023-01-29T08:17:57.952Z,-1.97
2023-01-29T08:20:01.366Z,-1.95
2023-01-29T08:22:06.401Z,-2.01
2023-01-29T08:24:09.648Z,-2.00
2023-01-29T08:26:12.533Z,-1.98
2023-01-29T08:28:15.497Z,-1.95
2023-01-29T08:30:18.825Z,-1.88
2023-01-29T08:32:21.757Z,-1.83
2023-01-29T08:34:24.688Z,-1.87
2023-01-29T08:36:27.919Z,-1.90
2023-01-29T08:38:32.517Z,-1.89
2023-01-29T08:40:35.884Z,-1.82
2023-01-29T08:42:38.761Z,-1.90
2023-01-29T08:44:41.917Z,-1.87
2023-01-29T08:46:45.007Z,-1.91
2023-01-29T08:48:48.037Z,-1.88
2023-01-29T08:50:51.397Z,-1.93
2023-01-29T08:52:58.382Z,-1.87
2023-01-29T08:55:02.700Z,-1.85
2023-01-29T08:57:05.879Z,-1.90
2023-01-29T08:59:10.123Z,-1.78
2023-01-29T09:01:14.577Z,-1.82
2023-01-29T09:03:17.523Z,-1.74
2023-01-29T09:05:20.704Z,-1.75
2023-01-29T09:07:23.627Z,-1.71
2023-01-29T09:09:26.757Z,-1.67
2023-01-29T09:11:31.199Z,-1.56
2023-01-29T09:13:34.557Z,-1.55
2023-01-29T09:15:37.418Z,-1.45
2023-01-29T09:17:41.376Z,-1.51
2023-01-29T09:19:44.295Z,-1.35
2023-01-29T09:21:47.308Z,-1.34
2023-01-29T09:23:50.277Z,-1.31
2023-01-29T09:25:53.277Z,-1.23
2023-01-29T09:27:57.627Z,-1.25
2023-01-29T09:30:00.878Z,-1.19
2023-01-29T09:32:04.936Z,-1.02
2023-01-29T09:34:07.808Z,-0.96
2023-01-29T09:36:10.998Z,-0.94
2023-01-29T09:38:14.608Z,-0.80
2023-01-29T09:40:26.427Z,-0.83
2023-01-29T09:42:36.477Z,-0.60
2023-01-29T09:44:54.497Z,-0.70
2023-01-29T09:47:00.547Z,-0.73
2023-01-29T09:49:11.317Z,-0.46
2023-01-29T09:51:22.238Z,-0.49
2023-01-29T09:53:31.999Z,-0.31
2023-01-29T09:55:41.878Z,-0.14
2023-01-29T09:57:48.435Z,0.55
2023-01-29T09:59:52.979Z,0.31
2023-01-29T10:02:05.743Z,0.21
2023-01-29T10:04:28.214Z,0.20
2023-01-29T10:06:49.480Z,1.31
2023-01-29T10:09:30.798Z,0.84
2023-01-29T10:11:43.838Z,0.39
2023-01-29T10:13:56.087Z,1.30
2023-01-29T10:16:12.077Z,0.84
2023-01-29T10:18:45.527Z,0.81
2023-01-29T10:20:58.477Z,1.28
2023-01-29T10:23:21.218Z,1.37
2023-01-29T10:25:24.476Z,1.30
2023-01-29T10:27:33.452Z,1.56
2023-01-29T10:29:36.659Z,1.40
2023-01-29T10:31:41.573Z,1.36
2023-01-29T10:34:01.420Z,1.31
2023-01-29T10:36:10.231Z,1.31
2023-01-29T10:38:24.751Z,1.72
2023-01-29T10:40:44.367Z,1.52
2023-01-29T10:42:53.418Z,1.52
2023-01-29T10:45:13.358Z,1.58
2023-01-29T10:47:45.660Z,1.55
2023-01-29T10:50:06.491Z,1.74
2023-01-29T10:52:32.397Z,1.78
2023-01-29T10:54:56.597Z,1.64
2023-01-29T10:57:11.658Z,1.60
2023-01-29T10:59:33.513Z,1.24
2023-01-29T11:01:36.385Z,1.13
2023-01-29T11:03:41.099Z,1.06
2023-01-29T11:05:51.708Z,1.04
2023-01-29T11:08:03.349Z,1.43
2023-01-29T11:10:12.160Z,1.37
2023-01-29T11:12:19.536Z,1.44
2023-01-29T11:14:27.487Z,1.42
2023-01-29T11:16:30.973Z,1.42
2023-01-29T11:18:54.036Z,1.06
2023-01-29T11:21:03.184Z,0.90
2023-01-29T11:23:07.633Z,1.24
2023-01-29T11:25:17.239Z,1.34
2023-01-29T11:27:26.238Z,1.06
2023-01-29T11:29:38.236Z,0.75
2023-01-29T11:31:41.367Z,0.72
2023-01-29T11:33:45.734Z,0.83
2023-01-29T11:35:53.044Z,0.90
2023-01-29T11:38:08.255Z,0.65
2023-01-29T11:40:41.373Z,0.55
2023-01-29T11:42:44.758Z,0.72
2023-01-29T11:44:47.918Z,0.60
2023-01-29T11:46:51.117Z,0.67
2023-01-29T11:48:59.331Z,0.77
2023-01-29T11:51:13.367Z,0.70
2023-01-29T11:53:29.838Z,0.60
2023-01-29T11:55:49.828Z,0.76
2023-01-29T11:57:57.000Z,0.87
2023-01-29T12:00:03.038Z,0.74
2023-01-29T12:02:23.774Z,0.74
2023-01-29T12:04:26.810Z,0.59
2023-01-29T12:06:35.680Z,0.81
2023-01-29T12:08:40.318Z,0.81
2023-01-29T12:10:44.177Z,0.67
2023-01-29T12:12:47.279Z,0.60
2023-01-29T12:15:04.502Z,0.69
2023-01-29T12:17:12.998Z,0.81
2023-01-29T12:19:27.718Z,0.85
2023-01-29T12:21:38.518Z,0.77
2023-01-29T12:23:48.607Z,0.78
2023-01-29T12:26:01.846Z,0.60
2023-01-29T12:28:10.860Z,0.58
2023-01-29T12:30:20.090Z,0.67
2023-01-29T12:32:33.012Z,0.52
2023-01-29T12:34:46.037Z,0.61
2023-01-29T12:36:55.839Z,0.52
2023-01-29T12:38:59.681Z,0.55
2023-01-29T12:41:08.338Z,0.35
2023-01-29T12:43:16.267Z,0.44
2023-01-29T12:45:21.398Z,0.57
2023-01-29T12:47:30.648Z,0.38
2023-01-29T12:49:36.121Z,0.55
2023-01-29T12:51:41.151Z,0.49
2023-01-29T12:53:51.428Z,0.28
2023-01-29T12:55:58.317Z,0.43
2023-01-29T12:58:03.452Z,0.44
2023-01-29T13:00:12.718Z,0.57
2023-01-29T13:02:31.139Z,0.49
2023-01-29T13:04:40.721Z,0.58
2023-01-29T13:06:50.064Z,0.53
2023-01-29T13:08:58.517Z,0.47
2023-01-29T13:11:07.283Z,0.42
2023-01-29T13:13:19.678Z,0.53
2023-01-29T13:15:26.701Z,0.32
2023-01-29T13:17:36.605Z,0.33
2023-01-29T13:19:45.725Z,0.31
2023-01-29T13:21:49.160Z,0.35
2023-01-29T13:23:57.112Z,0.31
2023-01-29T13:26:00.789Z,0.32
2023-01-29T13:28:04.230Z,0.34
2023-01-29T13:30:09.153Z,0.07
2023-01-29T13:32:12.238Z,0.25
2023-01-29T13:34:19.819Z,0.28
2023-01-29T13:36:27.801Z,0.08
2023-01-29T13:38:33.839Z,0.16
2023-01-29T13:40:38.892Z,0.23
2023-01-29T13:42:46.300Z,0.03
2023-01-29T13:44:50.917Z,0.12
2023-01-29T13:46:59.850Z,0.03
2023-01-29T13:49:05.557Z,0.09
2023-01-29T13:51:18.139Z,0.03
2023-01-29T13:53:24.759Z,0.07
2023-01-29T13:55:31.837Z,0.14
2023-01-29T13:57:55.386Z,0.13
2023-01-29T13:59:59.241Z,-0.03
2023-01-29T14:02:04.474Z,0.04
2023-01-29T14:04:25.895Z,0.07
2023-01-29T14:06:49.558Z,0.15
2023-01-29T14:08:52.558Z,-0.01
2023-01-29T14:11:29.367Z,-0.07
2023-01-29T14:13:37.120Z,-0.02
2023-01-29T14:15:40.597Z,0.01
2023-01-29T14:18:03.597Z,-0.03
2023-01-29T14:20:19.817Z,-0.05
2023-01-29T14:22:25.114Z,-0.08
2023-01-29T14:24:31.387Z,-0.20
2023-01-29T14:26:45.958Z,-0.22
2023-01-29T14:28:59.129Z,-0.20
2023-01-29T14:31:03.262Z,-0.21
2023-01-29T14:33:07.149Z,-0.12
2023-01-29T14:35:19.575Z,-0.09
2023-01-29T14:37:29.317Z,-0.09
2023-01-29T14:39:37.476Z,-0.03
2023-01-29T14:41:40.285Z,0.00
2023-01-29T14:43:43.246Z,-0.06
2023-01-29T14:45:48.964Z,-0.07
2023-01-29T14:48:20.874Z,-0.03
2023-01-29T14:50:54.555Z,-0.08
2023-01-29T14:53:02.596Z,-0.13
2023-01-29T14:55:09.636Z,-0.11
2023-01-29T14:57:16.411Z,-0.14
2023-01-29T14:59:24.358Z,-0.16
2023-01-29T15:01:33.162Z,-0.04
2023-01-29T15:03:44.018Z,0.20
2023-01-29T15:05:49.438Z,0.18
2023-01-29T15:07:58.938Z,0.29
2023-01-29T15:10:22.328Z,0.42
2023-01-29T15:12:32.000Z,0.44
2023-01-29T15:14:38.423Z,0.62
2023-01-29T15:16:53.067Z,0.52
2023-01-29T15:19:04.770Z,0.69
2023-01-29T15:21:12.948Z,0.53
2023-01-29T15:23:26.227Z,0.35
2023-01-29T15:25:34.709Z,0.39
2023-01-29T15:27:42.498Z,0.49
2023-01-29T15:29:51.687Z,0.55
2023-01-29T15:31:57.268Z,0.53
2023-01-29T15:34:06.654Z,0.27
2023-01-29T15:36:19.337Z,0.22
2023-01-29T15:38:24.677Z,-0.04
2023-01-29T15:40:28.229Z,-0.25
2023-01-29T15:42:44.999Z,-0.30
2023-01-29T15:44:48.513Z,-0.44
2023-01-29T15:46:55.228Z,-0.65
2023-01-29T15:49:02.800Z,-0.74
2023-01-29T15:51:07.861Z,-0.79
2023-01-29T15:53:16.367Z,-0.76
2023-01-29T15:55:23.637Z,-0.92
2023-01-29T15:57:33.244Z,-0.95
2023-01-29T15:59:42.881Z,-0.90
2023-01-29T16:01:46.354Z,-0.96
2023-01-29T16:03:50.978Z,-0.98
2023-01-29T16:05:55.951Z,-0.94
2023-01-29T16:08:01.277Z,-0.95
2023-01-29T16:10:05.997Z,-1.00
2023-01-29T16:12:13.397Z,-0.91
2023-01-29T16:14:20.911Z,-1.03
2023-01-29T16:16:26.238Z,-1.05
2023-01-29T16:18:30.258Z,-1.03
2023-01-29T16:20:45.136Z,-1.05
2023-01-29T16:22:49.517Z,-1.12
2023-01-29T16:24:53.525Z,-1.16
2023-01-29T16:27:00.739Z,-1.08
2023-01-29T16:29:08.621Z,-1.11
2023-01-29T16:31:14.383Z,-1.21
2023-01-29T16:33:18.050Z,-1.21
2023-01-29T16:35:21.139Z,-1.10
2023-01-29T16:37:27.079Z,-1.19
2023-01-29T16:39:34.907Z,-1.20
2023-01-29T16:41:38.783Z,-1.26
2023-01-29T16:43:51.535Z,-1.15
2023-01-29T16:46:04.758Z,-1.16
2023-01-29T16:48:28.084Z,-1.08
2023-01-29T16:50:43.285Z,-1.16
2023-01-29T16:52:57.765Z,-1.12
2023-01-29T16:55:21.836Z,-1.12
2023-01-29T16:57:27.007Z,-1.09
2023-01-29T16:59:33.596Z,-1.04
2023-01-29T17:01:37.201Z,-1.09
2023-01-29T17:03:41.952Z,-1.05
2023-01-29T17:05:45.827Z,-1.01
2023-01-29T17:07:49.019Z,-1.02
2023-01-29T17:09:56.142Z,-1.06
2023-01-29T17:12:03.826Z,-1.05
2023-01-29T17:14:08.108Z,-1.03
2023-01-29T17:16:24.425Z,-0.96
2023-01-29T17:18:27.337Z,-1.03
2023-01-29T17:20:31.900Z,-1.04
2023-01-29T17:22:34.778Z,-1.02
2023-01-29T17:24:37.554Z,-0.99
2023-01-29T17:26:41.145Z,-1.00
2023-01-29T17:28:46.188Z,-0.96
2023-01-29T17:31:04.252Z,-1.01
2023-01-29T17:33:13.954Z,-1.08
2023-01-29T17:35:17.928Z,-1.03
2023-01-29T17:37:21.157Z,-1.04
2023-01-29T17:39:25.859Z,-1.02
2023-01-29T17:41:30.786Z,-0.99
2023-01-29T17:43:33.798Z,-1.07
2023-01-29T17:45:39.090Z,-1.09
2023-01-29T17:47:42.078Z,-1.02
2023-01-29T17:49:44.997Z,-1.04
2023-01-29T17:51:49.437Z,-1.00
2023-01-29T17:53:52.359Z,-1.07
2023-01-29T17:55:55.248Z,-1.04
2023-01-29T17:57:58.318Z,-1.03
2023-01-29T18:00:01.282Z,-1.00
2023-01-29T18:02:05.682Z,-1.08
2023-01-29T18:04:09.603Z,-1.10
2023-01-29T18:06:20.273Z,-1.08
2023-01-29T18:08:28.828Z,-1.12
2023-01-29T18:10:31.830Z,-1.09
2023-01-29T18:12:35.158Z,-1.14
2023-01-29T18:14:37.988Z,-1.27
2023-01-29T18:16:41.763Z,-1.18
2023-01-29T18:18:46.101Z,-1.22
2023-01-29T18:20:49.299Z,-1.18
2023-01-29T18:22:52.698Z,-1.23
2023-01-29T18:24:55.661Z,-1.18
2023-01-29T18:26:58.497Z,-1.13
2023-01-29T18:29:01.450Z,-1.13
2023-01-29T18:31:05.754Z,-1.18
2023-01-29T18:33:09.168Z,-1.21
2023-01-29T18:35:13.791Z,-1.18
2023-01-29T18:37:16.960Z,-1.20
2023-01-29T18:39:19.891Z,-1.14
2023-01-29T18:41:22.880Z,-1.14
2023-01-29T18:43:26.355Z,-1.19
2023-01-29T18:45:30.238Z,-1.19
2023-01-29T18:47:33.167Z,-1.25
2023-01-29T18:49:39.430Z,-1.16
2023-01-29T18:51:43.819Z,-1.09
2023-01-29T18:53:50.264Z,-1.23
2023-01-29T18:55:58.059Z,-1.19
2023-01-29T18:58:28.420Z,-1.18
2023-01-29T19:00:25.157Z,-1.28
2023-01-29T19:02:28.246Z,-1.32
2023-01-29T19:04:31.122Z,-1.34
2023-01-29T19:06:37.022Z,-1.32
2023-01-29T19:08:43.241Z,-1.41
2023-01-29T19:10:46.562Z,-1.39
2023-01-29T19:12:49.552Z,-1.31
2023-01-29T19:14:52.398Z,-1.36
2023-01-29T19:16:56.222Z,-1.45
2023-01-29T19:19:00.163Z,-1.42
2023-01-29T19:21:07.801Z,-1.46
2023-01-29T19:23:10.940Z,-1.43
2023-01-29T19:25:16.589Z,-1.43
2023-01-29T19:27:20.073Z,-1.44
2023-01-29T19:29:23.123Z,-1.47
2023-01-29T19:31:26.389Z,-1.49
2023-01-29T19:33:29.520Z,-1.46
2023-01-29T19:35:33.890Z,-1.44
2023-01-29T19:37:36.770Z,-1.55
2023-01-29T19:39:39.679Z,-1.52
2023-01-29T19:41:44.085Z,-1.52
2023-01-29T19:43:48.561Z,-1.53
2023-01-29T19:45:58.151Z,-1.61
2023-01-29T19:48:01.208Z,-1.61
2023-01-29T19:50:04.532Z,-1.61
2023-01-29T19:52:15.105Z,-1.61
2023-01-29T19:54:18.640Z,-1.61
2023-01-29T19:56:22.641Z,-1.57
2023-01-29T19:58:28.018Z,-1.63
2023-01-29T20:00:31.349Z,-1.66
2023-01-29T20:02:34.262Z,-1.74
2023-01-29T20:04:36.983Z,-1.76
2023-01-29T20:06:39.788Z,-1.84
2023-01-29T20:08:43.126Z,-1.80
2023-01-29T20:10:46.416Z,-1.74
2023-01-29T20:12:49.705Z,-1.71
2023-01-29T20:14:53.956Z,-1.71
2023-01-29T20:16:56.707Z,-1.72
2023-01-29T20:19:14.758Z,-1.85
2023-01-29T20:21:20.814Z,-1.85
2023-01-29T20:23:37.169Z,-1.95
2023-01-29T20:25:41.144Z,-1.82
2023-01-29T20:27:43.903Z,-1.78
2023-01-29T20:29:46.959Z,-1.81
2023-01-29T20:31:51.404Z,-1.83
2023-01-29T20:33:54.368Z,-1.86
2023-01-29T20:35:58.590Z,-1.86
2023-01-29T20:38:02.258Z,-1.85
2023-01-29T20:40:05.987Z,-1.90
2023-01-29T20:42:09.097Z,-1.88
2023-01-29T20:44:11.979Z,-1.98
2023-01-29T20:46:14.958Z,-1.88
2023-01-29T20:48:19.517Z,-1.90
2023-01-29T20:50:22.518Z,-1.90
2023-01-29T20:52:25.582Z,-1.99
2023-01-29T20:54:30.199Z,-1.97
2023-01-29T20:56:37.412Z,-1.94
2023-01-29T20:58:47.152Z,-2.00
2023-01-29T21:00:50.050Z,-2.04
2023-01-29T21:02:52.996Z,-1.98
2023-01-29T21:04:57.165Z,-1.96
2023-01-29T21:06:59.954Z,-1.96
2023-01-29T21:09:02.808Z,-2.04
2023-01-29T21:11:06.981Z,-1.99
2023-01-29T21:13:09.714Z,-2.01
2023-01-29T21:15:12.938Z,-1.99
2023-01-29T21:17:15.834Z,-1.89
2023-01-29T21:19:18.884Z,-1.98
2023-01-29T21:21:23.278Z,-1.99
2023-01-29T21:23:26.206Z,-1.95
2023-01-29T21:25:29.203Z,-2.05
2023-01-29T21:27:32.165Z,-2.02
2023-01-29T21:29:36.820Z,-1.98
2023-01-29T21:31:40.583Z,-2.03
2023-01-29T21:33:43.720Z,-2.00
2023-01-29T21:35:46.596Z,-1.96
2023-01-29T21:37:51.347Z,-1.96
2023-01-29T21:39:54.366Z,-1.95
2023-01-29T21:42:16.135Z,-1.99
2023-01-29T21:44:19.108Z,-2.02
2023-01-29T21:46:21.988Z,-2.07
2023-01-29T21:48:25.418Z,-2.08
2023-01-29T21:50:28.628Z,-2.19
2023-01-29T21:52:31.716Z,-2.20
2023-01-29T21:54:46.063Z,-2.20
2023-01-29T21:56:49.013Z,-2.25
2023-01-29T21:58:52.407Z,-2.28
2023-01-29T22:00:55.318Z,-2.26
2023-01-29T22:02:58.152Z,-2.15
2023-01-29T22:05:18.028Z,-2.33
2023-01-29T22:07:22.047Z,-2.34
2023-01-29T22:09:25.057Z,-2.29
2023-01-29T22:11:29.647Z,-2.29
2023-01-29T22:13:32.640Z,-2.21
2023-01-29T22:15:35.782Z,-2.23
2023-01-29T22:17:41.617Z,-2.25
2023-01-29T22:19:44.762Z,-2.19
2023-01-29T22:21:47.766Z,-2.14
2023-01-29T22:23:50.997Z,-2.16
2023-01-29T22:25:53.968Z,-2.21
2023-01-29T22:27:58.338Z,-2.15
2023-01-29T22:30:01.235Z,-2.24
2023-01-29T22:32:04.597Z,-2.18
2023-01-29T22:34:07.726Z,-2.18
2023-01-29T22:36:11.058Z,-2.08
2023-01-29T22:38:14.061Z,-2.11
2023-01-29T22:40:17.632Z,-2.07
2023-01-29T22:42:21.081Z,-2.09
2023-01-29T22:44:25.507Z,-2.16
2023-01-29T22:46:28.616Z,-2.14
2023-01-29T22:48:31.637Z,-2.13
2023-01-29T22:50:34.577Z,-2.18
2023-01-29T22:52:42.936Z,-2.12
2023-01-29T22:54:45.917Z,-2.05
2023-01-29T22:56:49.388Z,-2.05
2023-01-29T22:58:52.933Z,-2.07
2023-01-29T23:00:57.223Z,-2.03
2023-01-29T23:03:00.398Z,-2.12
2023-01-29T23:05:04.602Z,-2.06
2023-01-29T23:07:07.640Z,-2.08
2023-01-29T23:09:10.506Z,-2.14
2023-01-29T23:11:17.936Z,-2.07
2023-01-29T23:13:20.979Z,-2.07
2023-01-29T23:15:24.037Z,-2.01
2023-01-29T23:17:28.593Z,-1.98
2023-01-29T23:19:31.667Z,-2.14
2023-01-29T23:21:34.842Z,-2.12
2023-01-29T23:23:38.398Z,-2.09
2023-01-29T23:26:00.065Z,-2.12
2023-01-29T23:28:02.950Z,-2.15
2023-01-29T23:30:08.037Z,-2.11
2023-01-29T23:32:11.780Z,-2.07
2023-01-29T23:34:16.199Z,-2.11
2023-01-29T23:36:19.243Z,-2.12
2023-01-29T23:38:22.110Z,-2.07
2023-01-29T23:40:25.103Z,-2.05
2023-01-29T23:42:28.038Z,-2.15
2023-01-29T23:44:31.097Z,-2.15
2023-01-29T23:46:34.106Z,-2.21
2023-01-29T23:48:37.155Z,-2.15
2023-01-29T23:50:41.458Z,-2.16
2023-01-29T23:52:44.315Z,-2.11
2023-01-29T23:54:47.157Z,-2.14
2023-01-29T23:56:50.208Z,-2.25
2023-01-29T23:58:56.286Z,-2.22
